CheckWX is a tool to help pilots better visualize weather data.  It is not intended as a substitute for an official pre-flight weather briefing.

16:35:17 UTC

KBTL METAR
W K Kellogg Airport
Battle Creek, Michigan, USA
Current

42 mins ago

KBTL 261553Z 14008KT 10SM CLR 29/19 A3007 RMK AO2 SLP176 T02890189
Observed
May-26 @ 15:53 UTC
Wind
  • 140° at 8 KTS
Visibility
Flight Rules
VFR
Cloud Levels
  • Clear skies
Temperature
29°C / 84°F
Dewpoint
19°C / 66°F
Humidity
55%
Altimeter
30.07" Hg
Pressure
1018.32 hPa
Previous

2 hours ago

KBTL 261453Z VRB06KT 10SM CLR 28/20 A3007 RMK AO2 SLP176 T02780200 50000
Observed
May-26 @ 14:53 UTC
Wind
  • Variable at 6 KTS
Visibility
Flight Rules
VFR
Cloud Levels
  • Clear skies
Temperature
28°C / 82°F
Dewpoint
20°C / 68°F
Humidity
62%
Altimeter
30.07" Hg
Pressure
1018.32 hPa
Previous

3 hours ago

KBTL 261353Z 22003KT 10SM CLR 26/21 A3008 RMK AO2 SLP179 T02610206
Observed
May-26 @ 13:53 UTC
Wind
  • 220° at 3 KTS
Visibility
Flight Rules
VFR
Cloud Levels
  • Clear skies
Temperature
26°C / 79°F
Dewpoint
21°C / 70°F
Humidity
74%
Altimeter
30.08" Hg
Pressure
1018.62 hPa